createdAt,value
2018-10-07T00:08:55.571Z,13.6
2018-10-07T00:18:54.794Z,13.6
2018-10-07T00:28:54.017Z,13.5
2018-10-07T00:38:53.235Z,13.5
2018-10-07T00:48:52.456Z,13.4
2018-10-07T00:58:51.683Z,13.2
2018-10-07T01:08:50.905Z,13.2
2018-10-07T01:18:50.130Z,13.1
2018-10-07T01:28:49.342Z,13
2018-10-07T01:38:48.565Z,12.9
2018-10-07T01:48:47.837Z,12.8
2018-10-07T01:58:47.011Z,12.8
2018-10-07T02:08:46.229Z,12.7
2018-10-07T02:18:45.505Z,12.6
2018-10-07T02:28:44.696Z,12.5
2018-10-07T02:38:43.908Z,12.4
2018-10-07T02:48:43.113Z,12.4
2018-10-07T02:58:42.335Z,12.4
2018-10-07T03:08:41.561Z,12.3
2018-10-07T03:18:40.785Z,12.3
2018-10-07T03:28:40.004Z,12.3
2018-10-07T03:38:39.227Z,12.3
2018-10-07T03:48:38.498Z,12.2
2018-10-07T03:58:37.661Z,12.1
2018-10-07T04:08:36.882Z,12.1
2018-10-07T04:18:36.104Z,12.1
2018-10-07T04:28:35.329Z,12.1
2018-10-07T04:38:34.544Z,11.4
2018-10-07T04:48:33.769Z,10.8
2018-10-07T04:58:32.993Z,10.7
2018-10-07T05:08:32.217Z,10.6
2018-10-07T05:18:31.436Z,10.9
2018-10-07T05:28:30.659Z,12.1
2018-10-07T05:38:29.880Z,13.3
2018-10-07T05:48:29.109Z,14.8
2018-10-07T05:58:28.327Z,16.3
2018-10-07T06:08:27.542Z,17.5
2018-10-07T06:18:26.763Z,19.1
2018-10-07T06:28:25.989Z,20.5
2018-10-07T06:38:25.230Z,21.9
2018-10-07T06:48:24.434Z,23.1
2018-10-07T06:58:23.658Z,24.9
2018-10-07T07:08:22.876Z,26.1
2018-10-07T07:18:22.114Z,26.8
2018-10-07T07:28:21.327Z,27.6
2018-10-07T07:38:20.544Z,27.6
2018-10-07T07:48:19.766Z,29.1
2018-10-07T07:58:18.990Z,29.7
2018-10-07T08:08:18.213Z,30.5
2018-10-07T08:18:17.436Z,31.3
2018-10-07T08:28:16.665Z,31.9
2018-10-07T08:38:15.896Z,31.3
2018-10-07T08:48:15.112Z,32
2018-10-07T08:58:14.335Z,31.9
2018-10-07T09:08:13.558Z,31.8
2018-10-07T09:18:12.777Z,31.8
2018-10-07T09:28:12.000Z,29.6
2018-10-07T09:38:11.225Z,30.3
2018-10-07T09:48:10.459Z,30.1
2018-10-07T09:58:09.753Z,30.4
2018-10-07T10:08:08.896Z,28.8
2018-10-07T10:18:08.121Z,28.9
2018-10-07T10:28:07.348Z,29.4
2018-10-07T10:38:06.556Z,28.4
2018-10-07T10:48:05.916Z,27.9
2018-10-07T10:58:05.000Z,25.9
2018-10-07T11:08:04.222Z,25.8
2018-10-07T11:18:03.449Z,25.8
2018-10-07T11:28:02.670Z,24.3
2018-10-07T11:38:01.894Z,23.7
2018-10-07T11:48:01.120Z,23.1
2018-10-07T11:58:00.353Z,22.6
2018-10-07T12:07:59.580Z,22.4
2018-10-07T12:17:58.795Z,22.3
2018-10-07T12:27:58.016Z,22
2018-10-07T12:37:57.248Z,21.9
2018-10-07T12:47:56.469Z,21.8
2018-10-07T12:57:55.693Z,21.7
2018-10-07T13:07:54.906Z,21.7
2018-10-07T13:17:54.132Z,21.5
2018-10-07T13:27:53.343Z,21.4
2018-10-07T13:37:52.569Z,21.4
2018-10-07T13:47:51.785Z,21.4
2018-10-07T13:57:51.010Z,21.4
2018-10-07T14:07:50.226Z,21.3
2018-10-07T14:17:49.445Z,21.3
2018-10-07T14:27:48.672Z,21.2
2018-10-07T14:37:47.892Z,21.2
2018-10-07T14:47:47.110Z,21.1
2018-10-07T14:57:46.340Z,20.9
2018-10-07T15:07:45.554Z,20.6
2018-10-07T15:17:44.777Z,20.3
2018-10-07T15:27:43.997Z,20.1
2018-10-07T15:37:43.213Z,19.8
2018-10-07T15:47:42.503Z,19.5
2018-10-07T15:57:41.666Z,19.3
2018-10-07T16:07:40.877Z,18.9
2018-10-07T16:17:40.102Z,18.6
2018-10-07T16:27:39.327Z,18.6
2018-10-07T16:37:38.542Z,18.4
2018-10-07T16:47:37.773Z,18.3
2018-10-07T16:57:36.990Z,18.2
2018-10-07T17:07:36.216Z,18.1
2018-10-07T17:17:35.442Z,17.9
2018-10-07T17:27:34.661Z,17.8
2018-10-07T17:37:33.887Z,17.8
2018-10-07T17:47:33.108Z,17.6
2018-10-07T17:57:32.333Z,17.6
2018-10-07T18:07:31.560Z,17.4
2018-10-07T18:17:30.786Z,17.4
2018-10-07T18:27:29.999Z,17.3
2018-10-07T18:37:29.238Z,17.1
2018-10-07T18:47:28.454Z,16.9
2018-10-07T18:57:27.675Z,16.8
2018-10-07T19:07:26.898Z,16.8
2018-10-07T19:17:26.106Z,16.7
2018-10-07T19:27:25.333Z,16.6
2018-10-07T19:37:24.699Z,16.5
2018-10-07T19:47:23.787Z,16.4
2018-10-07T19:57:23.011Z,16.3
2018-10-07T20:07:22.233Z,16.2
2018-10-07T20:17:21.457Z,16.1
2018-10-07T20:27:20.674Z,15.9
2018-10-07T20:37:19.898Z,15.9
2018-10-07T20:47:19.125Z,15.8
2018-10-07T20:57:18.348Z,15.6
2018-10-07T21:07:17.573Z,15.6
2018-10-07T21:17:16.799Z,15.4
2018-10-07T21:27:16.017Z,15.4
2018-10-07T21:37:15.248Z,15.3
2018-10-07T21:47:14.464Z,15.2
2018-10-07T21:57:13.692Z,15.1
2018-10-07T22:07:12.909Z,15
2018-10-07T22:17:12.140Z,14.9
2018-10-07T22:27:11.361Z,14.8
2018-10-07T22:37:10.577Z,14.8
2018-10-07T22:47:09.801Z,14.7
2018-10-07T22:57:09.027Z,14.6
2018-10-07T23:07:08.249Z,14.6
2018-10-07T23:17:07.471Z,14.5
2018-10-07T23:27:06.691Z,14.5
2018-10-07T23:37:05.923Z,14.4
2018-10-07T23:47:05.138Z,14.4
2018-10-07T23:57:04.356Z,14.3
